Terminal Aerodrome Forecast
Issued by NWS

Home | Current Version | Previous Version | Text Only | Print | Product List | Glossary On
Versions: 1 2 3 4 5 6 7 8 9 10 11 12 13 14 15 16
000
FTUS44 KCRP 180522
TAFALI
TAF
KALI 180522Z 1806/1906 36004KT 3SM BR OVC003
     FM180800 04005KT 2SM BR VCSH OVC002
     FM181400 02005KT 4SM BR VCSH OVC006
     FM190000 06005KT 5SM BR OVC003=

USA.gov is the U.S. government's official web portal to all federal, state and local government web resources and services.